Time;durP1;ratioP1;P1;durP2;ratioP2;P2;SDS_P1;SDS_P2;PMS_P1;PMS_P2;Temp;Humidity;BMP_temperature;BMP_pressure;BME280_temperature;BME280_humidity;BME280_pressure;Samples;Min_cycle;Max_cycle;Signal;HPM_P1;HPM_P2
2024/03/29 00:02:27;;;;;;;9.00;3.50;;;;;;;12.54;61.82;99443.44;105141;1258;61701;-59
2024/03/29 00:04:57;;;;;;;10.00;3.50;;;;;;;12.52;61.69;99450.63;105293;1253;65709;-61
2024/03/29 00:07:24;;;;;;;8.70;3.60;;;;;;;12.50;61.88;99447.55;105099;1254;62622;-60
2024/03/29 00:09:52;;;;;;;11.10;3.80;;;;;;;12.47;61.84;99444.64;105160;1260;62501;-61
2024/03/29 00:12:20;;;;;;;9.90;3.80;;;;;;;12.42;61.65;99441.96;105078;1255;61408;-59
2024/03/29 00:14:48;;;;;;;9.70;4.10;;;;;;;12.34;61.72;99443.12;105266;1253;61327;-59
2024/03/29 00:17:16;;;;;;;8.20;3.60;;;;;;;12.27;61.63;99443.91;105924;1254;65641;-59
2024/03/29 00:19:43;;;;;;;11.60;3.20;;;;;;;12.25;61.65;99442.33;105205;1257;61515;-60
2024/03/29 00:22:11;;;;;;;7.90;3.60;;;;;;;12.24;61.54;99444.52;105202;1254;62584;-60
2024/03/29 00:24:38;;;;;;;9.40;4.00;;;;;;;12.20;61.48;99443.20;105236;1255;61379;-61
2024/03/29 00:27:06;;;;;;;12.50;4.90;;;;;;;12.14;61.39;99435.74;105356;1254;61218;-60
2024/03/29 00:29:34;;;;;;;9.10;3.70;;;;;;;12.05;61.36;99435.38;105320;1255;65792;-60
2024/03/29 00:32:01;;;;;;;5.90;1.80;;;;;;;11.97;61.40;99440.20;105260;1254;61589;-57
2024/03/29 00:34:29;;;;;;;11.30;4.40;;;;;;;11.88;61.34;99442.83;105185;1256;63752;-59
2024/03/29 00:36:56;;;;;;;11.10;4.40;;;;;;;11.80;61.39;99440.81;105134;1253;61296;-60
2024/03/29 00:39:24;;;;;;;8.70;4.10;;;;;;;11.70;61.39;99439.33;105223;1253;61328;-59
2024/03/29 00:41:51;;;;;;;5.00;2.00;;;;;;;11.67;61.51;99439.86;105109;1254;64532;-57
2024/03/29 00:44:19;;;;;;;13.10;5.40;;;;;;;11.68;61.58;99440.23;105079;1258;61383;-59
2024/03/29 00:46:46;;;;;;;10.00;4.50;;;;;;;11.72;61.63;99431.94;105053;1254;63903;-59
2024/03/29 00:49:14;;;;;;;9.60;4.30;;;;;;;11.70;61.84;99429.14;105184;1253;61304;-59
2024/03/29 00:51:41;;;;;;;9.80;4.10;;;;;;;11.67;62.16;99428.54;105149;1258;61236;-59
2024/03/29 00:54:09;;;;;;;9.50;4.00;;;;;;;11.65;62.23;99432.61;105176;1258;65702;-59
2024/03/29 00:56:36;;;;;;;9.80;4.60;;;;;;;11.62;62.18;99434.33;105124;1258;61763;-57
2024/03/29 00:59:04;;;;;;;6.80;1.50;;;;;;;11.60;62.40;99434.34;105288;1257;63691;-58
2024/03/29 01:01:32;;;;;;;10.60;3.70;;;;;;;11.62;62.35;99432.13;104990;1257;60304;-57
2024/03/29 01:04:00;;;;;;;7.70;3.40;;;;;;;11.65;62.49;99434.06;105631;1253;61316;-56
2024/03/29 01:06:27;;;;;;;7.40;3.40;;;;;;;11.69;62.62;99434.48;105028;1253;64481;-57
2024/03/29 01:08:54;;;;;;;5.00;1.70;;;;;;;11.74;62.89;99436.65;105197;1257;61305;-59
2024/03/29 01:11:22;;;;;;;11.80;4.20;;;;;;;11.77;63.21;99439.01;105207;1254;63663;-58
2024/03/29 01:13:49;;;;;;;10.90;4.40;;;;;;;11.74;63.19;99437.05;105219;1254;61359;-58
2024/03/29 01:16:17;;;;;;;8.10;4.00;;;;;;;11.68;63.43;99438.64;105199;1256;61165;-57
2024/03/29 01:18:45;;;;;;;9.20;4.30;;;;;;;11.65;63.67;99437.18;106188;1256;64840;-57
2024/03/29 01:21:13;;;;;;;11.20;4.30;;;;;;;11.67;63.82;99433.70;105085;1253;61385;-56
2024/03/29 01:23:42;;;;;;;6.70;2.10;;;;;;;11.69;63.93;99434.34;105110;1253;62447;-59
2024/03/29 01:26:14;;;;;;;9.60;3.90;;;;;;;11.70;63.93;99432.28;105164;1253;61482;-57
2024/03/29 01:28:41;;;;;;;11.00;5.00;;;;;;;11.73;64.19;99435.20;105316;1255;61539;-57
2024/03/29 01:31:09;;;;;;;15.00;4.30;;;;;;;11.74;64.24;99436.00;105013;1256;66683;-57
2024/03/29 01:33:37;;;;;;;12.30;4.00;;;;;;;11.74;64.23;99436.20;105223;1253;61435;-56
2024/03/29 01:36:05;;;;;;;7.40;2.50;;;;;;;11.70;64.22;99441.94;106302;1257;63841;-58
2024/03/29 01:38:33;;;;;;;11.40;4.00;;;;;;;11.71;64.24;99441.38;105146;1258;61593;-57
2024/03/29 01:41:01;;;;;;;8.20;3.90;;;;;;;11.73;64.08;99438.69;105532;1257;61239;-56
2024/03/29 01:43:28;;;;;;;10.40;4.40;;;;;;;11.75;64.15;99434.98;105055;1257;64461;-58
2024/03/29 01:45:56;;;;;;;10.70;4.60;;;;;;;11.76;64.12;99438.41;104859;1254;61522;-57
2024/03/29 01:48:24;;;;;;;5.30;1.50;;;;;;;11.75;64.16;99436.60;104978;1253;62523;-58
2024/03/29 01:50:53;;;;;;;10.40;4.70;;;;;;;11.73;64.13;99442.25;105847;1257;61222;-56
2024/03/29 01:53:21;;;;;;;9.50;4.30;;;;;;;11.69;64.02;99444.76;105050;1255;61379;-58
2024/03/29 01:55:48;;;;;;;11.60;4.30;;;;;;;11.71;63.96;99443.13;105241;1253;64514;-58
2024/03/29 01:58:16;;;;;;;9.10;4.10;;;;;;;11.75;63.83;99444.48;106749;1257;61163;-57
2024/03/29 02:00:50;;;;;;;12.20;4.90;;;;;;;11.78;63.63;99445.25;105176;1260;62565;-57
2024/03/29 02:03:18;;;;;;;10.60;4.10;;;;;;;11.80;63.63;99444.17;105928;1255;61347;-58
2024/03/29 02:05:47;;;;;;;11.70;4.50;;;;;;;11.78;63.67;99444.52;105855;1255;61198;-56
2024/03/29 02:08:15;;;;;;;9.50;4.70;;;;;;;11.76;63.43;99448.92;105297;1253;65659;-59
2024/03/29 02:10:43;;;;;;;7.10;2.20;;;;;;;11.72;63.42;99450.40;105204;1253;61371;-57
2024/03/29 02:13:11;;;;;;;11.00;5.00;;;;;;;11.70;63.36;99446.90;109179;1254;62497;-59
2024/03/29 02:15:41;;;;;;;12.30;4.50;;;;;;;11.72;63.29;99446.77;107841;1253;61269;-58
2024/03/29 02:18:09;;;;;;;10.10;5.20;;;;;;;11.75;63.18;99447.53;105207;1255;61280;-58
2024/03/29 02:20:37;;;;;;;14.00;4.80;;;;;;;11.77;63.03;99445.92;105240;1253;65706;-57
2024/03/29 02:23:10;;;;;;;13.70;5.10;;;;;;;11.74;62.92;99442.32;105458;1256;61271;-58
2024/03/29 02:25:38;;;;;;;13.40;5.50;;;;;;;11.69;62.83;99441.72;105267;1254;63775;-57
2024/03/29 02:28:05;;;;;;;9.70;4.50;;;;;;;11.66;62.81;99442.07;105377;1253;61441;-56
2024/03/29 02:30:33;;;;;;;6.10;1.80;;;;;;;11.66;62.54;99440.98;108775;1253;59157;-61
2024/03/29 02:33:01;;;;;;;10.00;4.80;;;;;;;11.67;62.53;99442.66;105132;1257;65788;-59
2024/03/29 02:35:28;;;;;;;11.90;5.20;;;;;;;11.68;62.36;99440.30;105237;1253;62177;-58
2024/03/29 02:38:34;;;;;;;13.10;4.70;;;;;;;11.66;62.50;99438.20;105675;1257;63954;-58
2024/03/29 02:41:29;;;;;;;9.50;4.80;;;;;;;11.62;62.34;99436.08;105229;1253;61266;-57
2024/03/29 02:43:57;;;;;;;11.50;5.50;;;;;;;11.57;62.14;99439.27;105729;1253;61219;-57
2024/03/29 02:46:25;;;;;;;17.50;5.80;;;;;;;11.51;62.06;99442.48;105641;1253;64686;-56
2024/03/29 02:48:52;;;;;;;6.50;1.60;;;;;;;11.51;61.89;99437.66;105261;1258;61263;-57
2024/03/29 02:51:20;;;;;;;10.90;4.30;;;;;;;11.55;61.76;99435.61;106020;1256;62468;-58
2024/03/29 02:53:48;;;;;;;12.00;4.60;;;;;;;11.57;61.72;99432.11;105090;1254;61352;-57
2024/03/29 02:56:20;;;;;;;13.00;5.80;;;;;;;11.57;61.53;99430.86;106030;1253;61325;-57
2024/03/29 03:14:29;;;;;;;13.60;5.50;;;;;;;11.40;61.09;99433.36;105232;1254;61415;-58
2024/03/29 03:16:57;;;;;;;10.10;5.10;;;;;;;11.42;60.92;99431.63;105192;1255;65651;-59
2024/03/29 03:19:25;;;;;;;9.90;4.90;;;;;;;11.41;60.84;99428.91;107396;1253;61167;-58
2024/03/29 03:21:52;;;;;;;12.10;4.80;;;;;;;11.39;60.74;99430.55;105210;1256;63781;-57
2024/03/29 03:24:19;;;;;;;9.80;2.60;;;;;;;11.37;60.64;99435.95;105812;1253;61369;-60
2024/03/29 03:26:47;;;;;;;12.30;5.30;;;;;;;11.33;60.48;99433.86;105240;1257;61172;-58
2024/03/29 03:29:15;;;;;;;11.60;5.60;;;;;;;11.30;60.42;99436.61;105316;1255;64459;-56
2024/03/29 03:31:42;;;;;;;11.10;4.40;;;;;;;11.31;60.24;99437.52;105189;1253;61739;-58
2024/03/29 03:34:09;;;;;;;11.10;5.60;;;;;;;11.35;60.06;99439.47;105212;1257;63839;-57
2024/03/29 03:36:37;;;;;;;12.70;5.20;;;;;;;11.36;59.92;99441.65;105200;1258;61399;-57
2024/03/29 03:39:04;;;;;;;7.40;2.90;;;;;;;11.35;59.79;99441.44;105289;1254;61249;-57
2024/03/29 03:41:32;;;;;;;10.80;5.30;;;;;;;11.33;59.76;99441.98;105201;1253;64558;-57
2024/03/29 03:43:59;;;;;;;13.60;5.70;;;;;;;11.31;59.64;99443.05;105432;1254;61373;-57
2024/03/29 03:46:27;;;;;;;17.60;5.80;;;;;;;11.28;59.51;99446.29;105215;1253;63366;-56
2024/03/29 03:48:54;;;;;;;15.00;4.70;;;;;;;11.30;59.36;99445.39;105210;1253;61308;-56
2024/03/29 03:51:22;;;;;;;6.00;1.70;;;;;;;11.36;59.18;99449.02;105346;1256;61243;-57
2024/03/29 03:53:49;;;;;;;11.30;5.20;;;;;;;11.39;59.12;99446.14;105160;1253;68005;-59
2024/03/29 04:08:09;;;;;;;5.80;1.80;;;;;;;11.51;58.54;99441.62;105867;1253;61333;-58
2024/03/29 04:10:41;;;;;;;13.40;5.80;;;;;;;11.56;58.36;99437.44;106219;1255;64539;-59
2024/03/29 04:13:08;;;;;;;11.90;5.20;;;;;;;11.62;58.35;99433.86;105354;1258;61256;-59
2024/03/29 04:15:36;;;;;;;11.70;5.50;;;;;;;11.67;58.20;99434.06;105201;1253;63802;-58
2024/03/29 04:18:04;;;;;;;6.60;2.30;;;;;;;11.70;58.10;99431.23;105208;1257;61584;-59
2024/03/29 04:20:32;;;;;;;11.80;5.40;;;;;;;11.74;57.92;99434.20;106370;1257;61375;-65
2024/03/29 04:22:59;;;;;;;11.80;5.90;;;;;;;11.77;57.92;99438.81;105663;1253;65754;-56
2024/03/29 04:25:31;;;;;;;12.20;5.10;;;;;;;11.78;57.82;99441.03;105014;1253;61455;-58
2024/03/29 04:27:58;;;;;;;10.90;5.20;;;;;;;11.80;57.81;99441.36;105146;1254;62470;-56
2024/03/29 04:30:26;;;;;;;9.80;4.90;;;;;;;11.86;57.64;99437.75;105618;1257;61870;-56
2024/03/29 04:32:53;;;;;;;10.50;5.40;;;;;;;11.93;57.41;99443.05;105183;1257;61212;-59
2024/03/29 04:35:21;;;;;;;9.50;5.20;;;;;;;11.97;57.33;99443.77;105194;1253;65780;-59
2024/03/29 04:37:48;;;;;;;10.30;5.30;;;;;;;11.99;57.25;99441.77;105937;1257;61349;-58
2024/03/29 04:40:16;;;;;;;14.10;5.10;;;;;;;12.01;57.14;99441.36;105151;1253;63889;-60
2024/03/29 04:42:44;;;;;;;12.10;5.50;;;;;;;12.04;57.11;99441.46;105270;1253;61299;-59
2024/03/29 04:45:11;;;;;;;15.50;5.60;;;;;;;12.05;56.93;99447.48;107663;1253;61411;-57
2024/03/29 04:47:39;;;;;;;14.00;5.70;;;;;;;12.05;56.77;99449.56;105201;1253;64464;-59
2024/03/29 04:50:07;;;;;;;15.50;5.20;;;;;;;12.04;56.65;99453.73;105190;1257;61337;-59
2024/03/29 04:52:34;;;;;;;11.70;5.90;;;;;;;12.08;56.65;99450.48;105515;1253;63831;-62
2024/03/29 04:55:03;;;;;;;13.90;5.20;;;;;;;12.16;56.38;99449.58;106266;1257;61385;-58
2024/03/29 04:57:30;;;;;;;6.30;2.10;;;;;;;12.19;56.17;99446.10;105678;1253;61324;-62
2024/03/29 04:59:57;;;;;;;9.80;4.60;;;;;;;12.19;55.98;99449.21;105212;1253;64429;-59
2024/03/29 05:02:25;;;;;;;13.10;5.60;;;;;;;12.20;55.99;99449.55;105731;1255;61323;-57
2024/03/29 05:04:53;;;;;;;17.50;5.70;;;;;;;12.21;56.00;99453.08;105100;1258;62542;-57
2024/03/29 05:07:22;;;;;;;12.90;5.30;;;;;;;12.20;55.87;99451.74;105831;1256;61451;-59
2024/03/29 05:09:49;;;;;;;16.80;5.40;;;;;;;12.19;55.68;99450.33;104860;1254;61246;-59
2024/03/29 05:12:17;;;;;;;16.90;5.20;;;;;;;12.18;55.77;99449.66;107493;1256;64673;-57
2024/03/29 05:14:44;;;;;;;11.70;5.50;;;;;;;12.20;55.69;99445.66;105127;1258;61226;-60
2024/03/29 05:17:12;;;;;;;10.50;4.70;;;;;;;12.25;55.67;99440.86;104950;1258;63745;-56
2024/03/29 05:19:39;;;;;;;10.30;4.70;;;;;;;12.35;55.59;99442.04;104969;1256;61332;-59
2024/03/29 05:22:07;;;;;;;11.30;5.00;;;;;;;12.44;55.56;99443.53;105152;1253;61351;-57
2024/03/29 05:24:34;;;;;;;13.40;5.30;;;;;;;12.53;55.66;99441.20;105070;1253;64662;-54
2024/03/29 05:27:03;;;;;;;8.50;4.50;;;;;;;12.58;55.46;99441.39;105171;1258;61246;-55
2024/03/29 05:29:31;;;;;;;14.20;5.20;;;;;;;12.61;55.36;99438.23;106189;1253;62578;-55
2024/03/29 05:31:59;;;;;;;13.70;5.20;;;;;;;12.63;55.23;99434.31;104859;1255;228836;-53
2024/03/29 05:35:46;;;;;;;9.40;1.90;;;;;;;12.28;56.06;99430.05;102065;1290;600331;-52
2024/03/29 05:38:13;;;;;;;11.10;4.80;;;;;;;12.55;55.36;99426.63;104091;1267;59728;-52
2024/03/29 05:40:41;;;;;;;11.60;5.20;;;;;;;12.59;55.18;99423.20;104327;1270;59594;-54
2024/03/29 05:43:08;;;;;;;14.00;5.40;;;;;;;12.62;55.17;99416.91;104370;1267;64623;-50
2024/03/29 05:45:36;;;;;;;11.40;5.70;;;;;;;12.64;55.15;99421.13;104288;1266;61384;-55
2024/03/29 05:48:04;;;;;;;12.60;5.50;;;;;;;12.70;55.17;99421.14;104328;1267;63913;-60
2024/03/29 05:50:33;;;;;;;10.30;4.40;;;;;;;12.78;54.81;99420.34;108268;1263;299982;-56
2024/03/29 05:53:01;;;;;;;10.20;5.20;;;;;;;12.83;54.85;99425.39;108528;1264;57899;-67
2024/03/29 05:55:32;;;;;;;17.40;4.80;;;;;;;12.89;54.78;99425.88;108561;1262;64649;-62
2024/03/29 05:57:59;;;;;;;10.60;5.00;;;;;;;12.95;54.84;99429.09;108560;1266;61958;-59
2024/03/29 06:00:27;;;;;;;17.30;5.90;;;;;;;12.99;54.81;99420.63;108439;1262;63816;-56
2024/03/29 06:02:54;;;;;;;10.80;5.30;;;;;;;13.03;54.92;99424.89;107597;1263;60678;-58
2024/03/29 06:05:22;;;;;;;10.90;5.00;;;;;;;13.07;54.97;99428.95;105257;1269;60601;-59
2024/03/29 06:07:49;;;;;;;13.50;5.90;;;;;;;13.04;54.97;99427.42;105169;1254;63696;-53
2024/03/29 06:10:17;;;;;;;12.50;5.70;;;;;;;13.01;54.88;99431.34;105047;1260;61638;-56
2024/03/29 06:12:46;;;;;;;12.80;5.30;;;;;;;13.02;54.64;99434.69;105235;1257;62553;-53
2024/03/29 06:18:07;;;;;;;12.50;6.60;;;;;;;13.06;54.47;99455.59;105716;1253;62672;-55
2024/03/29 06:20:36;;;;;;;17.90;6.60;;;;;;;13.06;54.27;99460.53;105437;1251;66892;-57
2024/03/29 06:23:04;;;;;;;16.20;5.90;;;;;;;13.06;54.05;99469.65;105477;1256;60388;-68
2024/03/29 06:25:37;;;;;;;11.20;5.00;;;;;;;13.06;53.72;99466.64;105430;1256;64931;-57
2024/03/29 06:28:05;;;;;;;12.10;5.10;;;;;;;13.05;53.37;99468.89;107994;1251;60497;-54
2024/03/29 06:30:34;;;;;;;11.60;5.20;;;;;;;13.03;53.27;99471.42;105644;1251;60447;-55
2024/03/29 06:33:03;;;;;;;11.10;5.20;;;;;;;13.02;53.21;99468.65;109311;1251;64916;-57
2024/03/29 06:35:36;;;;;;;10.80;5.60;;;;;;;13.03;53.22;99467.14;105715;1253;64113;-56
2024/03/29 06:38:04;;;;;;;10.30;5.00;;;;;;;13.04;53.02;99489.79;109326;1254;64593;-61
2024/03/29 06:40:31;;;;;;;17.40;5.70;;;;;;;13.05;52.93;99516.76;109206;1252;58237;-52
2024/03/29 06:43:02;;;;;;;9.30;4.80;;;;;;;13.05;52.97;99519.96;109255;1252;58511;-55
2024/03/29 06:45:30;;;;;;;10.60;5.00;;;;;;;13.05;53.06;99519.42;109300;1253;65067;-59
2024/03/29 06:47:57;;;;;;;9.60;4.00;;;;;;;13.13;52.81;99520.19;109297;1253;63513;-61
2024/03/29 06:50:25;;;;;;;12.20;4.50;;;;;;;13.24;52.71;99518.04;108304;1253;62558;-63
2024/03/29 06:52:52;;;;;;;13.30;5.60;;;;;;;13.29;52.41;99509.86;105783;1254;61008;-62
2024/03/29 06:55:20;;;;;;;9.20;4.60;;;;;;;13.33;52.13;99507.38;105156;1254;62030;-62
2024/03/29 06:57:47;;;;;;;13.20;4.60;;;;;;;13.36;51.97;99504.42;105152;1254;64940;-59
2024/03/29 07:00:15;;;;;;;11.40;4.30;;;;;;;13.37;51.68;99500.23;105139;1256;60625;-61
2024/03/29 07:02:43;;;;;;;8.80;4.30;;;;;;;13.37;51.66;99504.95;105335;1257;63773;-61
2024/03/29 07:05:11;;;;;;;12.00;4.30;;;;;;;13.39;51.83;99509.41;105378;1255;60447;-61
2024/03/29 07:07:40;;;;;;;10.20;4.00;;;;;;;13.38;51.97;99508.06;105243;1254;60470;-63
2024/03/29 07:10:08;;;;;;;8.10;4.30;;;;;;;13.35;52.00;99506.11;105250;1254;65963;-62
2024/03/29 07:12:36;;;;;;;8.50;3.60;;;;;;;13.33;52.46;99508.44;108524;1258;61338;-61
2024/03/29 07:15:04;;;;;;;10.10;3.60;;;;;;;13.29;52.72;99511.27;105314;1256;62508;-62
2024/03/29 07:17:31;;;;;;;8.80;3.30;;;;;;;13.26;53.27;99517.16;105553;1254;60485;-64
2024/03/29 07:19:59;;;;;;;7.50;3.60;;;;;;;13.26;53.91;99521.68;105231;1254;62323;-61
2024/03/29 07:22:27;;;;;;;10.30;4.30;;;;;;;13.30;54.38;99519.71;105631;1254;63677;-60
2024/03/29 07:25:04;;;;;;;9.30;3.80;;;;;;;13.34;54.80;99524.83;105223;1257;60462;-63
2024/03/29 07:27:33;;;;;;;10.40;3.80;;;;;;;13.37;55.30;99529.13;105573;1257;62581;-60
2024/03/29 07:30:05;;;;;;;9.40;4.50;;;;;;;13.37;55.72;99526.88;106233;1254;60364;-61
2024/03/29 07:32:33;;;;;;;12.00;4.20;;;;;;;13.34;56.32;99516.65;105494;1254;64021;-67
2024/03/29 07:35:02;;;;;;;10.20;4.40;;;;;;;13.31;56.74;99515.15;105094;1256;67533;-64
2024/03/29 07:37:30;;;;;;;11.00;4.30;;;;;;;13.28;57.05;99506.88;105409;1257;63848;-61
2024/03/29 07:39:57;;;;;;;11.50;4.40;;;;;;;13.28;57.53;99503.11;108084;1254;74821;-60
2024/03/29 07:42:25;;;;;;;8.80;4.40;;;;;;;13.31;57.85;99508.83;105202;1254;60622;-59
2024/03/29 07:44:53;;;;;;;11.70;4.00;;;;;;;13.32;57.95;99505.50;105061;1254;60555;-60
2024/03/29 07:47:25;;;;;;;14.10;5.60;;;;;;;13.36;58.42;99508.80;105028;1252;65911;-63
2024/03/29 07:49:52;;;;;;;11.60;4.60;;;;;;;13.33;58.53;99530.12;108410;1254;60457;-61
2024/03/29 07:52:21;;;;;;;11.50;5.10;;;;;;;13.19;58.73;99536.42;104914;1259;74708;-60
2024/03/29 07:54:49;;;;;;;8.60;4.70;;;;;;;13.12;59.13;99535.73;107538;1254;58946;-61
2024/03/29 07:57:17;;;;;;;9.10;4.40;;;;;;;13.09;59.48;99532.76;105341;1254;60997;-59
2024/03/29 07:59:44;;;;;;;11.00;4.50;;;;;;;13.13;59.60;99536.00;106145;1254;65071;-59
2024/03/29 08:02:12;;;;;;;7.90;4.60;;;;;;;13.21;59.79;99547.52;105005;1256;60582;-59
2024/03/29 08:04:42;;;;;;;10.80;4.60;;;;;;;13.27;60.21;99539.88;105185;1254;74889;-56
2024/03/29 08:07:11;;;;;;;13.20;4.70;;;;;;;13.28;60.43;99533.77;105233;1259;60619;-61
2024/03/29 08:09:39;;;;;;;9.60;4.80;;;;;;;13.29;60.84;99525.21;108732;1254;59350;-59
2024/03/29 08:12:07;;;;;;;10.10;4.70;;;;;;;13.31;61.06;99514.98;105346;1252;74860;-59
2024/03/29 08:14:34;;;;;;;11.00;5.10;;;;;;;13.30;61.19;99505.91;107303;1253;61507;-60
2024/03/29 08:17:04;;;;;;;14.40;4.90;;;;;;;13.34;61.29;99490.17;105395;1253;71212;-59
2024/03/29 08:19:34;;;;;;;14.10;4.80;;;;;;;13.39;61.24;99491.54;105760;1254;60571;-59
2024/03/29 08:22:01;;;;;;;13.20;5.20;;;;;;;13.43;61.21;99487.86;105647;1252;60286;-59
2024/03/29 08:24:29;;;;;;;11.60;5.40;;;;;;;13.45;61.12;99486.37;105289;1254;65377;-58
2024/03/29 08:26:59;;;;;;;10.30;5.30;;;;;;;13.42;61.09;99489.51;105289;1254;72658;-58
2024/03/29 08:29:26;;;;;;;8.80;4.50;;;;;;;13.38;61.24;99496.34;105213;1254;64722;-60
2024/03/29 08:31:54;;;;;;;10.40;5.30;;;;;;;13.33;61.22;99496.08;105195;1254;60645;-59
2024/03/29 08:34:22;;;;;;;9.50;5.00;;;;;;;13.29;61.41;99498.80;106824;1254;60509;-58
2024/03/29 08:36:50;;;;;;;12.10;5.30;;;;;;;13.29;61.37;99492.13;105938;1254;76086;-57
2024/03/29 08:39:17;;;;;;;11.40;4.80;;;;;;;13.31;61.25;99481.33;105346;1254;72392;-61
2024/03/29 08:41:45;;;;;;;12.30;4.70;;;;;;;13.34;61.44;99482.13;105314;1254;65503;-59
2024/03/29 08:44:13;;;;;;;10.70;4.30;;;;;;;13.35;61.39;99479.89;105162;1257;60444;-59
2024/03/29 08:46:40;;;;;;;9.50;4.60;;;;;;;13.34;61.42;99463.76;105505;1254;60469;-62
2024/03/29 08:49:08;;;;;;;11.60;4.70;;;;;;;13.31;61.47;99463.57;106244;1257;66928;-60
2024/03/29 08:51:36;;;;;;;12.00;4.80;;;;;;;13.28;61.70;99449.45;105327;1256;72166;-60
2024/03/29 08:54:05;;;;;;;10.50;4.40;;;;;;;13.31;61.57;99446.86;105338;1254;65998;-59
2024/03/29 08:56:34;;;;;;;14.40;5.00;;;;;;;13.34;61.49;99438.42;105555;1254;60591;-60
2024/03/29 08:59:07;;;;;;;10.00;5.20;;;;;;;13.36;61.53;99433.38;105292;1256;60510;-59
2024/03/29 09:01:41;;;;;;;10.20;5.20;;;;;;;13.37;61.57;99434.61;105516;1256;65337;-59
2024/03/29 09:04:11;;;;;;;12.90;5.60;;;;;;;13.34;61.73;99433.67;105524;1254;63709;-61
2024/03/29 09:06:38;;;;;;;10.40;6.00;;;;;;;13.30;61.86;99430.32;105469;1256;62483;-58
2024/03/29 09:09:06;;;;;;;9.50;5.40;;;;;;;13.28;61.91;99437.13;105151;1253;64113;-60
2024/03/29 09:11:33;;;;;;;13.30;6.00;;;;;;;13.29;61.97;99434.88;105387;1254;60578;-59
2024/03/29 09:14:04;;;;;;;11.30;5.50;;;;;;;13.32;61.91;99431.02;105325;1256;65178;-59
2024/03/29 09:16:34;;;;;;;13.60;5.50;;;;;;;13.37;62.01;99431.59;106277;1256;61795;-61
2024/03/29 09:19:02;;;;;;;10.50;5.40;;;;;;;13.41;62.17;99436.42;105380;1254;64612;-59
2024/03/29 09:21:30;;;;;;;12.20;6.40;;;;;;;13.45;62.29;99445.67;109352;1251;60992;-61
2024/03/29 09:23:58;;;;;;;12.80;6.10;;;;;;;13.47;62.39;99452.73;109255;1251;58097;-59
2024/03/29 09:26:25;;;;;;;14.40;5.90;;;;;;;13.42;62.16;99448.81;105813;1254;67331;-59
2024/03/29 09:28:53;;;;;;;13.80;5.70;;;;;;;13.42;62.17;99437.55;109212;1254;62418;-59
2024/03/29 09:31:21;;;;;;;12.80;5.70;;;;;;;13.44;62.38;99427.17;107530;1254;64151;-59
2024/03/29 09:33:52;;;;;;;13.40;5.80;;;;;;;13.45;62.48;99427.34;105336;1256;61255;-61
2024/03/29 09:36:23;;;;;;;12.90;5.90;;;;;;;13.46;62.68;99442.96;106752;1251;60450;-60
2024/03/29 09:38:51;;;;;;;14.20;6.30;;;;;;;13.34;62.39;99448.09;105780;1254;74921;-61
2024/03/29 09:41:19;;;;;;;10.80;5.60;;;;;;;13.20;62.70;99450.73;106079;1251;63697;-60
2024/03/29 09:43:51;;;;;;;11.60;5.70;;;;;;;13.14;63.08;99438.54;105979;1254;64255;-59
2024/03/29 09:46:18;;;;;;;10.20;4.80;;;;;;;13.21;63.29;99422.14;108273;1258;63877;-62
2024/03/29 09:48:47;;;;;;;14.70;4.50;;;;;;;13.35;63.63;99418.95;105122;1256;62407;-63
2024/03/29 09:51:15;;;;;;;9.30;4.10;;;;;;;13.51;64.20;99411.91;106031;1257;76904;-57
2024/03/29 09:53:43;;;;;;;8.90;4.40;;;;;;;13.68;64.27;99410.15;105087;1257;62671;-58
2024/03/29 09:56:11;;;;;;;8.20;4.20;;;;;;;13.86;64.32;99406.90;107939;1256;74959;-59
2024/03/29 09:58:39;;;;;;;8.10;4.20;;;;;;;14.01;64.40;99405.11;105345;1252;61259;-60
2024/03/29 10:01:10;;;;;;;9.10;4.50;;;;;;;14.16;64.34;99409.46;105235;1254;61237;-60
2024/03/29 10:03:42;;;;;;;8.20;3.80;;;;;;;14.29;64.11;99414.67;105341;1251;68017;-59
2024/03/29 10:06:09;;;;;;;10.60;4.50;;;;;;;14.45;63.85;99418.27;105214;1256;62367;-58
2024/03/29 10:08:38;;;;;;;11.30;4.30;;;;;;;14.61;63.63;99416.48;105404;1256;62607;-58
2024/03/29 10:11:05;;;;;;;10.10;3.80;;;;;;;14.75;63.53;99415.76;105316;1257;61247;-60
2024/03/29 10:13:34;;;;;;;8.80;3.60;;;;;;;14.89;63.40;99412.12;105942;1252;61411;-54
2024/03/29 10:16:02;;;;;;;9.30;4.60;;;;;;;15.01;63.26;99408.56;105406;1254;74425;-56
2024/03/29 10:18:30;;;;;;;10.40;4.70;;;;;;;15.11;63.08;99409.96;105863;1254;63951;-60
2024/03/29 10:21:02;;;;;;;10.50;4.40;;;;;;;15.17;62.77;99414.17;105807;1256;66035;-62
2024/03/29 10:23:31;;;;;;;7.70;3.50;;;;;;;15.28;62.70;99413.83;105712;1253;61368;-61
2024/03/29 10:25:58;;;;;;;8.60;4.00;;;;;;;15.42;62.33;99416.27;105379;1257;62595;-58
2024/03/29 10:28:31;;;;;;;11.50;5.00;;;;;;;15.58;62.24;99414.25;105394;1251;65122;-61
2024/03/29 10:30:59;;;;;;;8.30;4.30;;;;;;;15.74;62.00;99415.61;105608;1254;72764;-62
2024/03/29 10:33:31;;;;;;;13.20;4.30;;;;;;;15.84;62.08;99418.20;106644;1251;74329;-59
2024/03/29 10:36:06;;;;;;;9.70;5.00;;;;;;;15.89;61.97;99415.78;105839;1251;61242;-60
2024/03/29 10:38:33;;;;;;;10.50;4.70;;;;;;;15.92;61.75;99413.25;106415;1250;61403;-58
2024/03/29 10:41:03;;;;;;;8.60;3.80;;;;;;;15.96;61.34;99421.32;105645;1251;64724;-59
2024/03/29 10:43:31;;;;;;;9.50;4.50;;;;;;;15.97;60.92;99426.73;105363;1256;61355;-62
2024/03/29 10:46:00;;;;;;;11.20;5.10;;;;;;;15.92;60.56;99427.70;105513;1251;64550;-57
2024/03/29 10:48:28;;;;;;;7.50;4.30;;;;;;;15.87;60.68;99430.20;105831;1251;61362;-59
2024/03/29 10:50:57;;;;;;;9.20;4.50;;;;;;;15.83;60.75;99432.59;105999;1256;61391;-54
2024/03/29 10:53:26;;;;;;;9.70;5.10;;;;;;;15.76;60.57;99434.63;105961;1251;66461;-62
2024/03/29 10:55:55;;;;;;;13.10;5.40;;;;;;;15.68;60.71;99438.79;105997;1256;63721;-62
2024/03/29 10:58:24;;;;;;;9.20;4.20;;;;;;;15.62;60.69;99439.81;105273;1254;64731;-65
2024/03/29 11:00:54;;;;;;;9.50;4.40;;;;;;;15.58;60.33;99439.34;106660;1256;61119;-62
2024/03/29 11:03:39;;;;;;;8.70;4.10;;;;;;;15.57;60.32;99442.13;105892;1252;61296;-61
2024/03/29 11:06:07;;;;;;;10.20;4.60;;;;;;;15.57;60.29;99446.14;105587;1254;74992;-62
2024/03/29 11:08:39;;;;;;;10.00;4.50;;;;;;;15.54;60.40;99449.02;105249;1251;61851;-57
2024/03/29 11:11:06;;;;;;;9.50;4.50;;;;;;;15.49;60.19;99453.09;105397;1259;66021;-58
2024/03/29 11:13:40;;;;;;;10.00;4.30;;;;;;;15.45;60.15;99450.40;105449;1259;62688;-66
2024/03/29 11:16:08;;;;;;;12.00;5.10;;;;;;;15.36;60.08;99446.86;105479;1251;61221;-62
2024/03/29 11:18:37;;;;;;;7.10;3.60;;;;;;;15.25;59.95;99443.13;105360;1251;64875;-62
2024/03/29 11:21:09;;;;;;;13.00;3.90;;;;;;;15.18;59.78;99454.01;105325;1251;72177;-59
2024/03/29 11:23:37;;;;;;;10.80;4.10;;;;;;;15.07;59.63;99465.16;105461;1251;74879;-61
2024/03/29 11:26:06;;;;;;;8.10;4.90;;;;;;;14.89;59.97;99465.90;105255;1259;61230;-59
2024/03/29 11:28:34;;;;;;;9.90;4.60;;;;;;;14.73;60.27;99463.11;109260;1257;58908;-60
2024/03/29 11:31:05;;;;;;;10.30;4.70;;;;;;;14.62;60.51;99464.02;109295;1251;66632;-60
2024/03/29 11:33:34;;;;;;;9.00;4.10;;;;;;;14.57;60.91;99467.79;109325;1251;62443;-58
2024/03/29 11:36:27;;;;;;;8.00;4.60;;;;;;;14.49;61.30;99485.85;109368;1252;62888;-59
2024/03/29 11:38:56;;;;;;;11.10;5.10;;;;;;;14.46;61.54;99493.92;109382;1251;59203;-54
2024/03/29 11:41:26;;;;;;;9.60;4.60;;;;;;;14.50;61.92;99494.61;109345;1250;59460;-60
2024/03/29 11:43:54;;;;;;;10.00;4.80;;;;;;;14.60;61.98;99488.98;106731;1255;64733;-58
2024/03/29 11:46:22;;;;;;;11.30;5.00;;;;;;;14.75;62.23;99487.77;105944;1256;61260;-58
2024/03/29 11:48:51;;;;;;;10.50;4.30;;;;;;;14.93;61.90;99489.52;106027;1256;74881;-59
2024/03/29 11:51:24;;;;;;;8.10;4.40;;;;;;;15.02;62.38;99494.86;105911;1254;61334;-61
2024/03/29 11:53:52;;;;;;;11.00;4.00;;;;;;;15.05;62.51;99496.80;105978;1257;61288;-58
2024/03/29 11:56:19;;;;;;;9.40;4.10;;;;;;;15.07;62.63;99504.95;105346;1256;64977;-58
2024/03/29 11:58:48;;;;;;;9.10;4.00;;;;;;;15.07;62.06;99511.52;105507;1251;61830;-64